sensor_id;sensor_type;location;lat;lon;timestamp;pressure;altitude;pressure_sealevel;temperature;humidity
50302;BME280;36550;50.472;19.744;2023-06-04T00:00:37;98592.04;;;6.80;63.94
50302;BME280;36550;50.472;19.744;2023-06-04T00:03:21;98585.39;;;6.75;63.98
50302;BME280;36550;50.472;19.744;2023-06-04T00:06:05;98587.02;;;6.71;64.11
50302;BME280;36550;50.472;19.744;2023-06-04T00:08:49;98583.54;;;6.71;64.16
50302;BME280;36550;50.472;19.744;2023-06-04T00:11:33;98581.69;;;6.71;64.21
50302;BME280;36550;50.472;19.744;2023-06-04T00:14:19;98576.54;;;6.69;64.23
50302;BME280;36550;50.472;19.744;2023-06-04T00:17:02;98576.98;;;6.67;64.29
50302;BME280;36550;50.472;19.744;2023-06-04T00:19:46;98575.20;;;6.63;64.44
50302;BME280;36550;50.472;19.744;2023-06-04T00:22:30;98575.23;;;6.60;64.54
50302;BME280;36550;50.472;19.744;2023-06-04T00:25:14;98574.02;;;6.56;64.60
50302;BME280;36550;50.472;19.744;2023-06-04T00:27:58;98568.69;;;6.51;64.68
50302;BME280;36550;50.472;19.744;2023-06-04T00:30:41;98570.27;;;6.47;64.67
50302;BME280;36550;50.472;19.744;2023-06-04T00:33:25;98572.17;;;6.42;64.67
50302;BME280;36550;50.472;19.744;2023-06-04T00:36:09;98571.02;;;6.35;64.65
50302;BME280;36550;50.472;19.744;2023-06-04T00:38:53;98569.55;;;6.32;64.73
50302;BME280;36550;50.472;19.744;2023-06-04T00:41:37;98565.94;;;6.30;64.82
50302;BME280;36550;50.472;19.744;2023-06-04T00:44:21;98563.84;;;6.29;64.86
50302;BME280;36550;50.472;19.744;2023-06-04T00:47:07;98564.84;;;6.29;65.00
50302;BME280;36550;50.472;19.744;2023-06-04T00:49:53;98563.91;;;6.27;65.08
50302;BME280;36550;50.472;19.744;2023-06-04T00:52:37;98564.81;;;6.24;65.21
50302;BME280;36550;50.472;19.744;2023-06-04T00:55:21;98561.48;;;6.22;65.27
50302;BME280;36550;50.472;19.744;2023-06-04T00:58:05;98564.17;;;6.16;65.27
50302;BME280;36550;50.472;19.744;2023-06-04T01:00:48;98563.80;;;6.13;65.40
50302;BME280;36550;50.472;19.744;2023-06-04T01:03:35;98559.80;;;6.09;65.45
50302;BME280;36550;50.472;19.744;2023-06-04T01:06:36;98561.83;;;6.05;65.50
50302;BME280;36550;50.472;19.744;2023-06-04T01:09:21;98563.02;;;6.02;65.59
50302;BME280;36550;50.472;19.744;2023-06-04T01:12:07;98563.11;;;6.00;65.61
50302;BME280;36550;50.472;19.744;2023-06-04T01:14:51;98567.45;;;6.00;65.70
50302;BME280;36550;50.472;19.744;2023-06-04T01:17:43;98563.27;;;6.00;65.77
50302;BME280;36550;50.472;19.744;2023-06-04T01:20:34;98565.40;;;6.00;65.80
50302;BME280;36550;50.472;19.744;2023-06-04T01:23:46;98565.91;;;5.97;65.77
50302;BME280;36550;50.472;19.744;2023-06-04T01:26:31;98563.36;;;5.91;65.77
50302;BME280;36550;50.472;19.744;2023-06-04T01:29:15;98563.89;;;5.86;65.83
50302;BME280;36550;50.472;19.744;2023-06-04T01:31:59;98567.55;;;5.84;66.03
50302;BME280;36550;50.472;19.744;2023-06-04T01:34:45;98568.28;;;5.80;65.99
50302;BME280;36550;50.472;19.744;2023-06-04T01:37:29;98561.64;;;5.75;65.96
50302;BME280;36550;50.472;19.744;2023-06-04T01:40:13;98564.64;;;5.69;65.83
50302;BME280;36550;50.472;19.744;2023-06-04T01:42:59;98562.48;;;5.61;65.77
50302;BME280;36550;50.472;19.744;2023-06-04T01:45:43;98564.23;;;5.54;65.74
50302;BME280;36550;50.472;19.744;2023-06-04T01:48:27;98558.79;;;5.50;65.86
50302;BME280;36550;50.472;19.744;2023-06-04T01:51:10;98559.02;;;5.48;66.02
50302;BME280;36550;50.472;19.744;2023-06-04T01:53:55;98553.88;;;5.51;66.23
50302;BME280;36550;50.472;19.744;2023-06-04T01:56:38;98551.21;;;5.52;66.45
50302;BME280;36550;50.472;19.744;2023-06-04T01:59:23;98547.52;;;5.51;66.53
50302;BME280;36550;50.472;19.744;2023-06-04T02:02:07;98545.35;;;5.51;66.67
50302;BME280;36550;50.472;19.744;2023-06-04T02:04:51;98549.20;;;5.49;66.69
50302;BME280;36550;50.472;19.744;2023-06-04T02:07:37;98544.06;;;5.46;66.68
50302;BME280;36550;50.472;19.744;2023-06-04T02:10:22;98544.92;;;5.42;66.64
50302;BME280;36550;50.472;19.744;2023-06-04T02:13:06;98549.65;;;5.38;66.67
50302;BME280;36550;50.472;19.744;2023-06-04T02:15:51;98550.37;;;5.34;66.57
50302;BME280;36550;50.472;19.744;2023-06-04T02:18:34;98551.86;;;5.30;66.56
50302;BME280;36550;50.472;19.744;2023-06-04T02:21:18;98548.34;;;5.30;66.76
50302;BME280;36550;50.472;19.744;2023-06-04T02:24:02;98552.89;;;5.33;66.91
50302;BME280;36550;50.472;19.744;2023-06-04T02:26:46;98553.23;;;5.36;67.15
50302;BME280;36550;50.472;19.744;2023-06-04T02:29:30;98554.77;;;5.37;67.25
50302;BME280;36550;50.472;19.744;2023-06-04T02:32:14;98551.38;;;5.38;67.38
50302;BME280;36550;50.472;19.744;2023-06-04T02:34:58;98555.59;;;5.39;67.40
50302;BME280;36550;50.472;19.744;2023-06-04T02:37:43;98558.46;;;5.38;67.27
50302;BME280;36550;50.472;19.744;2023-06-04T02:40:27;98558.73;;;5.36;67.18
50302;BME280;36550;50.472;19.744;2023-06-04T02:43:12;98559.61;;;5.33;67.16
50302;BME280;36550;50.472;19.744;2023-06-04T02:45:56;98556.48;;;5.32;67.20
50302;BME280;36550;50.472;19.744;2023-06-04T02:48:40;98552.89;;;5.33;67.23
50302;BME280;36550;50.472;19.744;2023-06-04T02:51:24;98551.90;;;5.35;67.16
50302;BME280;36550;50.472;19.744;2023-06-04T02:54:08;98552.50;;;5.38;67.12
50302;BME280;36550;50.472;19.744;2023-06-04T02:56:52;98555.17;;;5.38;67.09
50302;BME280;36550;50.472;19.744;2023-06-04T02:59:37;98551.08;;;5.41;67.19
50302;BME280;36550;50.472;19.744;2023-06-04T03:02:21;98555.13;;;5.42;67.22
50302;BME280;36550;50.472;19.744;2023-06-04T03:05:05;98556.54;;;5.43;67.23
50302;BME280;36550;50.472;19.744;2023-06-04T03:07:49;98554.91;;;5.44;67.18
50302;BME280;36550;50.472;19.744;2023-06-04T03:10:33;98555.23;;;5.45;67.17
50302;BME280;36550;50.472;19.744;2023-06-04T03:13:17;98555.92;;;5.62;67.10
50302;BME280;36550;50.472;19.744;2023-06-04T03:16:01;98554.92;;;5.93;66.84
50302;BME280;36550;50.472;19.744;2023-06-04T03:18:45;98555.52;;;6.19;66.95
50302;BME280;36550;50.472;19.744;2023-06-04T03:21:29;98554.63;;;6.37;66.96
50302;BME280;36550;50.472;19.744;2023-06-04T03:24:14;98551.90;;;6.59;67.03
50302;BME280;36550;50.472;19.744;2023-06-04T03:26:58;98555.45;;;6.75;67.19
50302;BME280;36550;50.472;19.744;2023-06-04T03:29:42;98554.11;;;6.84;67.36
50302;BME280;36550;50.472;19.744;2023-06-04T03:32:26;98553.33;;;6.90;67.47
50302;BME280;36550;50.472;19.744;2023-06-04T03:35:11;98554.66;;;6.95;67.58
50302;BME280;36550;50.472;19.744;2023-06-04T03:37:54;98557.25;;;6.99;67.64
50302;BME280;36550;50.472;19.744;2023-06-04T03:40:39;98553.45;;;7.04;67.68
50302;BME280;36550;50.472;19.744;2023-06-04T03:43:22;98557.67;;;7.10;67.80
50302;BME280;36550;50.472;19.744;2023-06-04T03:46:06;98557.48;;;7.18;67.91
50302;BME280;36550;50.472;19.744;2023-06-04T03:48:50;98558.30;;;7.25;67.89
50302;BME280;36550;50.472;19.744;2023-06-04T03:51:34;98559.80;;;7.36;67.87
50302;BME280;36550;50.472;19.744;2023-06-04T03:54:18;98556.10;;;7.48;67.90
50302;BME280;36550;50.472;19.744;2023-06-04T03:57:02;98560.73;;;7.59;67.93
50302;BME280;36550;50.472;19.744;2023-06-04T03:59:46;98558.48;;;7.67;68.01
50302;BME280;36550;50.472;19.744;2023-06-04T04:02:31;98557.19;;;7.76;68.10
50302;BME280;36550;50.472;19.744;2023-06-04T04:05:15;98560.20;;;7.85;68.09
50302;BME280;36550;50.472;19.744;2023-06-04T04:07:59;98563.80;;;7.95;68.11
50302;BME280;36550;50.472;19.744;2023-06-04T04:10:43;98564.79;;;8.03;68.14
50302;BME280;36550;50.472;19.744;2023-06-04T04:13:27;98555.80;;;8.10;68.15
50302;BME280;36550;50.472;19.744;2023-06-04T04:16:11;98559.86;;;8.19;68.06
50302;BME280;36550;50.472;19.744;2023-06-04T04:18:55;98557.65;;;8.29;68.12
50302;BME280;36550;50.472;19.744;2023-06-04T04:21:39;98558.77;;;8.41;68.09
50302;BME280;36550;50.472;19.744;2023-06-04T04:24:24;98559.19;;;8.49;68.01
50302;BME280;36550;50.472;19.744;2023-06-04T04:27:09;98559.33;;;8.57;67.93
50302;BME280;36550;50.472;19.744;2023-06-04T04:29:59;98563.30;;;8.68;67.94
50302;BME280;36550;50.472;19.744;2023-06-04T04:32:44;98561.77;;;8.77;68.02
50302;BME280;36550;50.472;19.744;2023-06-04T04:35:32;98559.36;;;8.84;67.86
50302;BME280;36550;50.472;19.744;2023-06-04T04:38:19;98557.77;;;8.89;67.91
50302;BME280;36550;50.472;19.744;2023-06-04T04:41:05;98557.49;;;8.95;67.95
50302;BME280;36550;50.472;19.744;2023-06-04T04:43:52;98560.44;;;9.02;67.93
50302;BME280;36550;50.472;19.744;2023-06-04T04:46:36;98564.75;;;9.09;67.81
50302;BME280;36550;50.472;19.744;2023-06-04T04:49:20;98564.66;;;9.17;67.79
50302;BME280;36550;50.472;19.744;2023-06-04T04:52:04;98561.34;;;9.36;67.88
50302;BME280;36550;50.472;19.744;2023-06-04T04:54:48;98561.48;;;9.69;67.89
50302;BME280;36550;50.472;19.744;2023-06-04T04:57:32;98561.33;;;10.09;67.89
50302;BME280;36550;50.472;19.744;2023-06-04T05:00:16;98560.29;;;10.48;67.95
50302;BME280;36550;50.472;19.744;2023-06-04T05:03:00;98559.48;;;10.88;67.96
50302;BME280;36550;50.472;19.744;2023-06-04T05:05:43;98565.02;;;11.28;67.85
50302;BME280;36550;50.472;19.744;2023-06-04T05:08:27;98565.02;;;11.66;67.72
50302;BME280;36550;50.472;19.744;2023-06-04T05:11:11;98565.77;;;11.97;67.21
50302;BME280;36550;50.472;19.744;2023-06-04T05:13:55;98565.13;;;12.30;66.92
50302;BME280;36550;50.472;19.744;2023-06-04T05:16:38;98563.30;;;12.62;66.48
50302;BME280;36550;50.472;19.744;2023-06-04T05:19:24;98566.76;;;12.96;66.21
50302;BME280;36550;50.472;19.744;2023-06-04T05:22:08;98568.17;;;13.34;65.97
50302;BME280;36550;50.472;19.744;2023-06-04T05:24:52;98565.89;;;13.70;65.33
50302;BME280;36550;50.472;19.744;2023-06-04T05:27:36;98564.98;;;14.02;64.93
50302;BME280;36550;50.472;19.744;2023-06-04T05:30:20;98568.51;;;14.32;64.45
50302;BME280;36550;50.472;19.744;2023-06-04T05:33:04;98569.15;;;14.63;63.92
50302;BME280;36550;50.472;19.744;2023-06-04T05:35:48;98568.67;;;14.94;63.20
50302;BME280;36550;50.472;19.744;2023-06-04T05:38:32;98570.05;;;15.29;62.80
50302;BME280;36550;50.472;19.744;2023-06-04T05:41:17;98568.18;;;15.65;62.38
50302;BME280;36550;50.472;19.744;2023-06-04T05:44:01;98564.43;;;16.05;62.06
50302;BME280;36550;50.472;19.744;2023-06-04T05:46:45;98567.50;;;16.43;61.68
50302;BME280;36550;50.472;19.744;2023-06-04T05:49:29;98564.41;;;16.80;61.25
50302;BME280;36550;50.472;19.744;2023-06-04T05:52:13;98565.23;;;17.13;60.04
50302;BME280;36550;50.472;19.744;2023-06-04T05:54:57;98562.98;;;17.37;58.86
50302;BME280;36550;50.472;19.744;2023-06-04T05:57:41;98562.55;;;17.54;58.02
50302;BME280;36550;50.472;19.744;2023-06-04T06:00:25;98564.35;;;17.69;57.46
50302;BME280;36550;50.472;19.744;2023-06-04T06:03:09;98567.03;;;17.78;56.96
50302;BME280;36550;50.472;19.744;2023-06-04T06:05:53;98566.05;;;17.84;56.33
50302;BME280;36550;50.472;19.744;2023-06-04T06:08:38;98566.63;;;17.86;56.12
50302;BME280;36550;50.472;19.744;2023-06-04T06:11:22;98572.15;;;17.85;55.80
50302;BME280;36550;50.472;19.744;2023-06-04T06:14:06;98569.45;;;17.87;55.75
50302;BME280;36550;50.472;19.744;2023-06-04T06:16:51;98570.09;;;17.86;55.60
50302;BME280;36550;50.472;19.744;2023-06-04T06:19:36;98572.84;;;17.84;55.30
50302;BME280;36550;50.472;19.744;2023-06-04T06:22:21;98572.77;;;17.79;54.75
50302;BME280;36550;50.472;19.744;2023-06-04T06:25:05;98567.74;;;17.72;54.57
50302;BME280;36550;50.472;19.744;2023-06-04T06:27:50;98566.73;;;17.66;54.24
50302;BME280;36550;50.472;19.744;2023-06-04T06:30:35;98567.65;;;17.61;53.87
50302;BME280;36550;50.472;19.744;2023-06-04T06:33:19;98565.32;;;17.57;53.70
50302;BME280;36550;50.472;19.744;2023-06-04T06:36:04;98566.91;;;17.50;52.59
50302;BME280;36550;50.472;19.744;2023-06-04T06:38:48;98567.27;;;17.44;52.08
50302;BME280;36550;50.472;19.744;2023-06-04T06:41:32;98562.88;;;17.39;51.92
50302;BME280;36550;50.472;19.744;2023-06-04T06:44:17;98562.02;;;17.36;51.65
50302;BME280;36550;50.472;19.744;2023-06-04T06:47:01;98558.73;;;17.31;51.34
50302;BME280;36550;50.472;19.744;2023-06-04T06:49:44;98561.11;;;17.29;51.12
50302;BME280;36550;50.472;19.744;2023-06-04T06:52:28;98567.10;;;17.29;51.24
50302;BME280;36550;50.472;19.744;2023-06-04T06:55:12;98569.71;;;17.30;51.12
50302;BME280;36550;50.472;19.744;2023-06-04T06:57:56;98570.72;;;17.33;50.43
50302;BME280;36550;50.472;19.744;2023-06-04T07:00:40;98573.48;;;17.34;49.53
50302;BME280;36550;50.472;19.744;2023-06-04T07:03:24;98572.90;;;17.33;49.43
50302;BME280;36550;50.472;19.744;2023-06-04T07:06:08;98574.59;;;17.35;49.56
50302;BME280;36550;50.472;19.744;2023-06-04T07:08:52;98577.10;;;17.37;49.54
50302;BME280;36550;50.472;19.744;2023-06-04T07:11:37;98577.47;;;17.40;49.41
50302;BME280;36550;50.472;19.744;2023-06-04T07:14:21;98577.89;;;17.45;49.26
50302;BME280;36550;50.472;19.744;2023-06-04T07:17:05;98578.89;;;17.49;48.95
50302;BME280;36550;50.472;19.744;2023-06-04T07:19:50;98578.42;;;17.52;48.21
50302;BME280;36550;50.472;19.744;2023-06-04T07:22:34;98575.55;;;17.55;48.39
50302;BME280;36550;50.472;19.744;2023-06-04T07:25:19;98578.42;;;17.58;47.90
50302;BME280;36550;50.472;19.744;2023-06-04T07:28:03;98576.56;;;17.60;47.57
50302;BME280;36550;50.472;19.744;2023-06-04T07:30:48;98578.95;;;17.62;47.42
50302;BME280;36550;50.472;19.744;2023-06-04T07:33:32;98575.70;;;17.66;47.36
50302;BME280;36550;50.472;19.744;2023-06-04T07:36:16;98578.79;;;17.70;46.95
50302;BME280;36550;50.472;19.744;2023-06-04T07:39:00;98579.09;;;17.75;47.29
50302;BME280;36550;50.472;19.744;2023-06-04T07:41:44;98579.20;;;17.79;47.02
50302;BME280;36550;50.472;19.744;2023-06-04T07:44:29;98582.87;;;17.82;46.89
50302;BME280;36550;50.472;19.744;2023-06-04T07:47:12;98575.18;;;17.86;46.68
50302;BME280;36550;50.472;19.744;2023-06-04T07:49:56;98576.57;;;17.91;46.21
50302;BME280;36550;50.472;19.744;2023-06-04T07:52:40;98582.83;;;17.99;46.57
50302;BME280;36550;50.472;19.744;2023-06-04T07:55:24;98581.95;;;18.03;46.24
50302;BME280;36550;50.472;19.744;2023-06-04T07:58:08;98578.70;;;18.09;45.91
50302;BME280;36550;50.472;19.744;2023-06-04T08:00:53;98581.46;;;18.14;45.67
50302;BME280;36550;50.472;19.744;2023-06-04T08:03:37;98576.45;;;18.17;45.44
50302;BME280;36550;50.472;19.744;2023-06-04T08:06:21;98578.85;;;18.17;44.75
50302;BME280;36550;50.472;19.744;2023-06-04T08:09:07;98576.23;;;18.21;44.12
50302;BME280;36550;50.472;19.744;2023-06-04T08:11:55;98581.21;;;18.27;44.39
50302;BME280;36550;50.472;19.744;2023-06-04T08:14:39;98582.10;;;18.31;44.28
50302;BME280;36550;50.472;19.744;2023-06-04T08:17:23;98583.91;;;18.31;43.01
50302;BME280;36550;50.472;19.744;2023-06-04T08:20:07;98586.94;;;18.32;43.50
50302;BME280;36550;50.472;19.744;2023-06-04T08:22:52;98581.95;;;18.31;42.65
50302;BME280;36550;50.472;19.744;2023-06-04T08:25:36;98581.59;;;18.27;42.66
50302;BME280;36550;50.472;19.744;2023-06-04T08:28:20;98586.84;;;18.27;42.71
50302;BME280;36550;50.472;19.744;2023-06-04T08:31:04;98585.51;;;18.27;42.49
50302;BME280;36550;50.472;19.744;2023-06-04T08:33:48;98582.91;;;18.27;42.16
50302;BME280;36550;50.472;19.744;2023-06-04T08:36:32;98581.06;;;18.25;42.13
50302;BME280;36550;50.472;19.744;2023-06-04T08:39:16;98580.27;;;18.25;42.17
50302;BME280;36550;50.472;19.744;2023-06-04T08:42:04;98579.77;;;18.25;42.10
50302;BME280;36550;50.472;19.744;2023-06-04T08:44:51;98582.70;;;18.27;42.27
50302;BME280;36550;50.472;19.744;2023-06-04T08:47:37;98582.92;;;18.27;42.13
50302;BME280;36550;50.472;19.744;2023-06-04T08:50:23;98583.16;;;18.30;42.46
50302;BME280;36550;50.472;19.744;2023-06-04T08:53:08;98584.11;;;18.33;42.34
50302;BME280;36550;50.472;19.744;2023-06-04T08:55:55;98584.27;;;18.37;42.59
50302;BME280;36550;50.472;19.744;2023-06-04T08:58:41;98584.52;;;18.42;41.97
50302;BME280;36550;50.472;19.744;2023-06-04T09:01:25;98582.59;;;18.44;41.93
50302;BME280;36550;50.472;19.744;2023-06-04T09:04:10;98588.80;;;18.46;41.99
50302;BME280;36550;50.472;19.744;2023-06-04T09:07:01;98587.79;;;18.47;41.88
50302;BME280;36550;50.472;19.744;2023-06-04T09:09:47;98586.39;;;18.49;42.13
50302;BME280;36550;50.472;19.744;2023-06-04T09:12:31;98592.23;;;18.52;41.85
50302;BME280;36550;50.472;19.744;2023-06-04T09:15:16;98586.59;;;18.56;40.62
50302;BME280;36550;50.472;19.744;2023-06-04T09:17:59;98586.69;;;18.58;40.86
50302;BME280;36550;50.472;19.744;2023-06-04T09:20:43;98589.33;;;18.60;41.13
50302;BME280;36550;50.472;19.744;2023-06-04T09:23:27;98589.09;;;18.66;40.74
50302;BME280;36550;50.472;19.744;2023-06-04T09:26:12;98593.52;;;18.74;41.30
50302;BME280;36550;50.472;19.744;2023-06-04T09:28:57;98595.32;;;18.79;41.50
50302;BME280;36550;50.472;19.744;2023-06-04T09:31:44;98591.27;;;18.81;41.52
50302;BME280;36550;50.472;19.744;2023-06-04T09:34:29;98589.73;;;18.81;41.36
50302;BME280;36550;50.472;19.744;2023-06-04T09:37:16;98589.09;;;18.83;41.52
50302;BME280;36550;50.472;19.744;2023-06-04T09:40:03;98590.16;;;18.84;40.76
50302;BME280;36550;50.472;19.744;2023-06-04T09:42:49;98587.96;;;18.86;39.36
50302;BME280;36550;50.472;19.744;2023-06-04T09:45:38;98585.19;;;18.88;39.02
50302;BME280;36550;50.472;19.744;2023-06-04T09:48:22;98585.33;;;18.89;39.64
50302;BME280;36550;50.472;19.744;2023-06-04T09:51:07;98587.20;;;18.90;39.95
50302;BME280;36550;50.472;19.744;2023-06-04T09:53:58;98587.16;;;18.88;40.04
50302;BME280;36550;50.472;19.744;2023-06-04T09:56:42;98578.92;;;18.86;39.87
50302;BME280;36550;50.472;19.744;2023-06-04T09:59:28;98578.45;;;18.86;39.83
50302;BME280;36550;50.472;19.744;2023-06-04T10:02:13;98580.14;;;18.87;39.93
50302;BME280;36550;50.472;19.744;2023-06-04T10:04:58;98575.20;;;18.88;40.05
50302;BME280;36550;50.472;19.744;2023-06-04T10:07:43;98571.25;;;18.88;40.09
50302;BME280;36550;50.472;19.744;2023-06-04T10:10:33;98572.64;;;18.88;40.31
50302;BME280;36550;50.472;19.744;2023-06-04T10:13:19;98570.39;;;18.90;40.44
50302;BME280;36550;50.472;19.744;2023-06-04T10:16:05;98565.02;;;18.89;39.56
50302;BME280;36550;50.472;19.744;2023-06-04T10:18:52;98565.49;;;18.91;39.02
50302;BME280;36550;50.472;19.744;2023-06-04T10:21:38;98567.70;;;18.96;39.17
50302;BME280;36550;50.472;19.744;2023-06-04T10:24:22;98561.23;;;19.00;38.58
50302;BME280;36550;50.472;19.744;2023-06-04T10:27:07;98563.45;;;19.03;38.44
50302;BME280;36550;50.472;19.744;2023-06-04T10:29:54;98564.44;;;19.06;38.57
50302;BME280;36550;50.472;19.744;2023-06-04T10:32:37;98565.48;;;19.09;38.02
50302;BME280;36550;50.472;19.744;2023-06-04T10:35:31;98572.19;;;19.10;38.43
50302;BME280;36550;50.472;19.744;2023-06-04T10:38:15;98570.82;;;19.08;38.00
50302;BME280;36550;50.472;19.744;2023-06-04T10:41:12;98565.13;;;19.07;37.11
50302;BME280;36550;50.472;19.744;2023-06-04T10:44:01;98566.90;;;19.05;37.37
50302;BME280;36550;50.472;19.744;2023-06-04T10:46:45;98561.80;;;19.03;37.84
50302;BME280;36550;50.472;19.744;2023-06-04T10:49:30;98568.52;;;19.02;37.99
50302;BME280;36550;50.472;19.744;2023-06-04T10:52:14;98571.21;;;19.03;38.45
50302;BME280;36550;50.472;19.744;2023-06-04T10:55:06;98565.23;;;19.07;39.02
50302;BME280;36550;50.472;19.744;2023-06-04T10:57:52;98565.31;;;19.11;38.46
50302;BME280;36550;50.472;19.744;2023-06-04T11:00:44;98566.69;;;19.13;38.65
50302;BME280;36550;50.472;19.744;2023-06-04T11:03:36;98566.52;;;19.12;38.70
50302;BME280;36550;50.472;19.744;2023-06-04T11:06:21;98567.14;;;19.09;38.89
50302;BME280;36550;50.472;19.744;2023-06-04T11:09:06;98567.50;;;19.10;38.89
50302;BME280;36550;50.472;19.744;2023-06-04T11:11:59;98565.05;;;19.11;38.87
50302;BME280;36550;50.472;19.744;2023-06-04T11:14:56;98566.75;;;19.12;38.91
50302;BME280;36550;50.472;19.744;2023-06-04T11:17:50;98564.09;;;19.11;38.54
50302;BME280;36550;50.472;19.744;2023-06-04T11:20:34;98566.95;;;19.13;38.58
50302;BME280;36550;50.472;19.744;2023-06-04T11:23:18;98564.65;;;19.16;37.47
50302;BME280;36550;50.472;19.744;2023-06-04T11:26:02;98571.92;;;19.17;37.32
50302;BME280;36550;50.472;19.744;2023-06-04T11:28:48;98568.67;;;19.17;37.78
50302;BME280;36550;50.472;19.744;2023-06-04T11:34:28;98569.01;;;19.23;38.14
50302;BME280;36550;50.472;19.744;2023-06-04T11:37:12;98569.39;;;19.24;38.29
50302;BME280;36550;50.472;19.744;2023-06-04T11:39:56;98568.20;;;19.25;38.33
50302;BME280;36550;50.472;19.744;2023-06-04T11:42:40;98567.35;;;19.25;37.43
50302;BME280;36550;50.472;19.744;2023-06-04T11:45:27;98565.84;;;19.28;37.97
50302;BME280;36550;50.472;19.744;2023-06-04T11:48:14;98563.73;;;19.30;38.06
50302;BME280;36550;50.472;19.744;2023-06-04T11:50:58;98560.85;;;19.33;38.02
50302;BME280;36550;50.472;19.744;2023-06-04T11:53:48;98560.46;;;19.35;37.77
50302;BME280;36550;50.472;19.744;2023-06-04T11:56:32;98552.27;;;19.39;37.71
50302;BME280;36550;50.472;19.744;2023-06-04T11:59:17;98552.55;;;19.44;38.08
50302;BME280;36550;50.472;19.744;2023-06-04T12:02:02;98553.88;;;19.46;38.37
50302;BME280;36550;50.472;19.744;2023-06-04T12:04:47;98555.20;;;19.48;38.50
50302;BME280;36550;50.472;19.744;2023-06-04T12:07:31;98552.56;;;19.44;37.99
50302;BME280;36550;50.472;19.744;2023-06-04T12:10:15;98552.52;;;19.41;38.16
50302;BME280;36550;50.472;19.744;2023-06-04T12:12:58;98556.48;;;19.41;38.27
50302;BME280;36550;50.472;19.744;2023-06-04T12:15:42;98557.66;;;19.40;37.89
50302;BME280;36550;50.472;19.744;2023-06-04T12:18:26;98552.89;;;19.36;37.86
50302;BME280;36550;50.472;19.744;2023-06-04T12:21:18;98550.95;;;19.35;38.32
50302;BME280;36550;50.472;19.744;2023-06-04T12:24:08;98551.42;;;19.34;37.62
50302;BME280;36550;50.472;19.744;2023-06-04T12:27:04;98547.16;;;19.33;37.55
50302;BME280;36550;50.472;19.744;2023-06-04T12:29:56;98548.52;;;19.30;37.58
50302;BME280;36550;50.472;19.744;2023-06-04T12:32:41;98550.23;;;19.29;37.79
50302;BME280;36550;50.472;19.744;2023-06-04T12:35:26;98548.54;;;19.28;38.14
50302;BME280;36550;50.472;19.744;2023-06-04T12:38:10;98552.14;;;19.29;38.26
50302;BME280;36550;50.472;19.744;2023-06-04T12:40:53;98550.02;;;19.29;38.22
50302;BME280;36550;50.472;19.744;2023-06-04T12:43:38;98545.37;;;19.31;38.30
50302;BME280;36550;50.472;19.744;2023-06-04T12:46:22;98550.14;;;19.34;38.36
50302;BME280;36550;50.472;19.744;2023-06-04T12:49:06;98544.27;;;19.36;38.15
50302;BME280;36550;50.472;19.744;2023-06-04T12:51:50;98549.46;;;19.39;38.28
50302;BME280;36550;50.472;19.744;2023-06-04T12:54:34;98546.89;;;19.41;38.40
50302;BME280;36550;50.472;19.744;2023-06-04T12:57:18;98546.54;;;19.45;38.25
50302;BME280;36550;50.472;19.744;2023-06-04T13:00:02;98543.37;;;19.48;37.88
50302;BME280;36550;50.472;19.744;2023-06-04T13:02:48;98547.83;;;19.50;38.09
50302;BME280;36550;50.472;19.744;2023-06-04T13:05:31;98546.44;;;19.51;38.04
50302;BME280;36550;50.472;19.744;2023-06-04T13:08:15;98547.52;;;19.51;37.84
50302;BME280;36550;50.472;19.744;2023-06-04T13:10:59;98542.14;;;19.49;37.78
50302;BME280;36550;50.472;19.744;2023-06-04T13:13:43;98542.98;;;19.48;37.88
50302;BME280;36550;50.472;19.744;2023-06-04T13:16:27;98540.00;;;19.49;38.02
50302;BME280;36550;50.472;19.744;2023-06-04T13:19:12;98541.21;;;19.51;38.20
50302;BME280;36550;50.472;19.744;2023-06-04T13:21:55;98537.95;;;19.53;38.18
50302;BME280;36550;50.472;19.744;2023-06-04T13:24:41;98538.80;;;19.55;38.20
50302;BME280;36550;50.472;19.744;2023-06-04T13:27:25;98542.83;;;19.56;38.02
50302;BME280;36550;50.472;19.744;2023-06-04T13:30:09;98540.77;;;19.55;37.77
50302;BME280;36550;50.472;19.744;2023-06-04T13:32:53;98540.19;;;19.54;37.87
50302;BME280;36550;50.472;19.744;2023-06-04T13:35:37;98540.34;;;19.55;37.95
50302;BME280;36550;50.472;19.744;2023-06-04T13:38:21;98542.36;;;19.56;37.86
50302;BME280;36550;50.472;19.744;2023-06-04T13:41:05;98534.79;;;19.56;37.67
50302;BME280;36550;50.472;19.744;2023-06-04T13:43:49;98538.23;;;19.57;37.56
50302;BME280;36550;50.472;19.744;2023-06-04T13:46:32;98538.09;;;19.57;37.23
50302;BME280;36550;50.472;19.744;2023-06-04T13:49:16;98533.73;;;19.56;36.98
50302;BME280;36550;50.472;19.744;2023-06-04T13:52:00;98531.44;;;19.55;36.89
50302;BME280;36550;50.472;19.744;2023-06-04T13:54:44;98535.23;;;19.55;37.01
50302;BME280;36550;50.472;19.744;2023-06-04T13:57:29;98533.63;;;19.54;36.76
50302;BME280;36550;50.472;19.744;2023-06-04T14:00:13;98531.25;;;19.53;36.51
50302;BME280;36550;50.472;19.744;2023-06-04T14:02:57;98528.53;;;19.53;36.27
50302;BME280;36550;50.472;19.744;2023-06-04T14:05:41;98528.30;;;19.54;36.57
50302;BME280;36550;50.472;19.744;2023-06-04T14:08:26;98526.55;;;19.55;36.80
50302;BME280;36550;50.472;19.744;2023-06-04T14:11:11;98523.52;;;19.55;36.75
50302;BME280;36550;50.472;19.744;2023-06-04T14:13:55;98525.16;;;19.54;36.67
50302;BME280;36550;50.472;19.744;2023-06-04T14:16:39;98524.46;;;19.55;36.93
50302;BME280;36550;50.472;19.744;2023-06-04T14:19:23;98519.53;;;19.58;36.86
50302;BME280;36550;50.472;19.744;2023-06-04T14:22:07;98521.18;;;19.60;36.68
50302;BME280;36550;50.472;19.744;2023-06-04T14:24:51;98515.58;;;19.60;36.77
50302;BME280;36550;50.472;19.744;2023-06-04T14:27:35;98510.31;;;19.60;36.55